Time;durP1;ratioP1;P1;durP2;ratioP2;P2;SDS_P1;SDS_P2;PMS_P1;PMS_P2;Temp;Humidity;BMP_temperature;BMP_pressure;BME280_temperature;BME280_humidity;BME280_pressure;Samples;Min_cycle;Max_cycle;Signal;HPM_P1;HPM_P2
2023/10/11 00:00:31;;;;;;;32.10;14.80;;;;;;;8.86;100.00;99633.79;109625;1251;61318;-64
2023/10/11 00:03:45;;;;;;;30.90;14.30;;;;;;;8.90;100.00;99633.55;109537;1251;71632;-64
2023/10/11 00:06:33;;;;;;;27.20;14.40;;;;;;;8.92;100.00;99633.16;109585;1255;68113;-65
2023/10/11 00:09:38;;;;;;;29.50;13.30;;;;;;;8.95;100.00;99632.44;109552;1251;72631;-63
2023/10/11 00:12:29;;;;;;;30.10;16.80;;;;;;;8.97;100.00;99621.32;109552;1251;59342;-64
2023/10/11 00:15:16;;;;;;;31.90;15.00;;;;;;;9.00;100.00;99615.20;109598;1251;58865;-66
2023/10/11 00:18:02;;;;;;;30.10;14.90;;;;;;;9.02;100.00;99607.96;109617;1256;72135;-61
2023/10/11 00:20:51;;;;;;;30.70;15.10;;;;;;;9.04;100.00;99601.43;109457;1251;66483;-63
2023/10/11 00:23:45;;;;;;;29.70;16.10;;;;;;;9.06;100.00;99591.21;109555;1251;71213;-61
2023/10/11 00:26:31;;;;;;;31.50;14.90;;;;;;;9.07;100.00;99586.89;109529;1251;58008;-63
2023/10/11 00:29:18;;;;;;;29.80;15.70;;;;;;;9.09;100.00;99585.11;109487;1251;58895;-64
2023/10/11 00:32:05;;;;;;;32.70;16.70;;;;;;;9.13;100.00;99585.89;109491;1251;72882;-64
2023/10/11 00:34:52;;;;;;;29.40;14.90;;;;;;;9.16;100.00;99583.52;109338;1251;66723;-63
2023/10/11 00:37:39;;;;;;;34.20;16.00;;;;;;;9.18;100.00;99585.13;109560;1251;71582;-64
2023/10/11 00:40:25;;;;;;;32.50;15.50;;;;;;;9.21;100.00;99587.05;109545;1251;59519;-63
2023/10/11 00:43:16;;;;;;;31.40;14.80;;;;;;;9.24;100.00;99580.44;109632;1251;60171;-64
2023/10/11 00:46:14;;;;;;;32.30;15.00;;;;;;;9.26;100.00;99576.88;109476;1251;71864;-63
2023/10/11 00:49:12;;;;;;;31.60;15.20;;;;;;;9.28;100.00;99573.71;109501;1255;67672;-63
2023/10/11 00:52:06;;;;;;;34.20;15.40;;;;;;;9.30;100.00;99570.38;109482;1251;72669;-63
2023/10/11 00:54:53;;;;;;;29.50;14.20;;;;;;;9.31;100.00;99572.58;109456;1251;59556;-64
2023/10/11 00:57:40;;;;;;;32.60;15.80;;;;;;;9.35;100.00;99570.50;109643;1251;57760;-65
2023/10/11 01:00:26;;;;;;;32.70;14.70;;;;;;;9.39;100.00;99561.70;109404;1251;73163;-63
2023/10/11 01:03:13;;;;;;;36.20;16.80;;;;;;;9.41;100.00;99555.52;109518;1251;65413;-63
2023/10/11 01:06:00;;;;;;;33.10;13.90;;;;;;;9.43;100.00;99553.58;109451;1257;71299;-64
2023/10/11 01:08:48;;;;;;;33.50;15.80;;;;;;;9.45;100.00;99552.73;109554;1251;58468;-62
2023/10/11 01:11:35;;;;;;;30.80;15.00;;;;;;;9.47;100.00;99538.36;109394;1251;59367;-63
2023/10/11 01:14:23;;;;;;;35.70;16.20;;;;;;;9.49;100.00;99534.29;109594;1251;71793;-64
2023/10/11 01:17:10;;;;;;;28.10;13.30;;;;;;;9.51;100.00;99526.03;109627;1251;67160;-63
2023/10/11 01:20:00;;;;;;;36.50;16.50;;;;;;;9.53;100.00;99521.80;109488;1251;71710;-64
2023/10/11 01:22:47;;;;;;;33.00;14.30;;;;;;;9.51;100.00;99504.92;109311;1251;59347;-66
2023/10/11 01:25:33;;;;;;;37.40;16.80;;;;;;;9.55;100.00;99506.75;109512;1253;58803;-62
2023/10/11 01:28:19;;;;;;;36.10;17.10;;;;;;;9.56;100.00;99503.62;109490;1251;72748;-63
2023/10/11 01:31:08;;;;;;;36.10;16.30;;;;;;;9.57;100.00;99506.91;109621;1251;67935;-66
2023/10/11 01:33:55;;;;;;;32.60;14.40;;;;;;;9.57;100.00;99496.72;109398;1251;71159;-64
2023/10/11 01:36:42;;;;;;;33.10;16.70;;;;;;;9.62;100.00;99497.14;109429;1251;59742;-63
2023/10/11 01:39:32;;;;;;;36.80;17.90;;;;;;;9.65;100.00;99498.30;109635;1251;60358;-63
2023/10/11 01:42:19;;;;;;;32.70;16.10;;;;;;;9.62;100.00;99483.48;109568;1251;72966;-64
2023/10/11 01:45:08;;;;;;;35.90;15.70;;;;;;;9.72;100.00;99483.00;109392;1253;68844;-64
2023/10/11 01:47:56;;;;;;;35.90;18.00;;;;;;;9.75;100.00;99471.66;109467;1251;71190;-63
2023/10/11 01:50:42;;;;;;;34.70;17.30;;;;;;;9.77;100.00;99480.35;109281;1254;60381;-64
2023/10/11 01:53:29;;;;;;;32.50;16.00;;;;;;;9.81;100.00;99478.06;109390;1254;61167;-64
2023/10/11 01:56:17;;;;;;;33.20;16.00;;;;;;;9.83;100.00;99467.22;109340;1252;71636;-63
2023/10/11 01:59:04;;;;;;;32.20;16.70;;;;;;;9.84;100.00;99463.40;109486;1251;67962;-63
2023/10/11 02:01:59;;;;;;;34.30;17.70;;;;;;;9.88;100.00;99460.80;109503;1251;73421;-63
2023/10/11 02:04:47;;;;;;;37.90;17.20;;;;;;;9.92;100.00;99458.15;109621;1251;57351;-65
2023/10/11 02:07:34;;;;;;;38.00;18.20;;;;;;;9.96;100.00;99456.54;109329;1251;61626;-63
2023/10/11 02:10:27;;;;;;;29.70;15.90;;;;;;;10.01;100.00;99454.38;109455;1251;71612;-63
2023/10/11 02:13:15;;;;;;;32.90;16.60;;;;;;;10.04;100.00;99453.59;109619;1251;67485;-62
2023/10/11 02:16:01;;;;;;;35.00;15.80;;;;;;;10.09;100.00;99453.23;109465;1255;71374;-62
2023/10/11 02:18:51;;;;;;;35.00;17.00;;;;;;;10.11;100.00;99448.37;109465;1251;58634;-63
2023/10/11 02:21:43;;;;;;;33.10;16.00;;;;;;;10.14;100.00;99450.11;109625;1251;61025;-64
2023/10/11 02:24:29;;;;;;;34.40;17.10;;;;;;;10.17;100.00;99448.06;109589;1254;73149;-63
2023/10/11 02:27:17;;;;;;;32.20;16.20;;;;;;;10.20;100.00;99448.14;109609;1251;65537;-63
2023/10/11 02:30:07;;;;;;;36.30;16.50;;;;;;;10.22;100.00;99444.19;109596;1251;73041;-62
2023/10/11 02:32:58;;;;;;;34.30;16.80;;;;;;;10.25;100.00;99433.42;109318;1251;57996;-62
2023/10/11 02:35:52;;;;;;;28.50;15.20;;;;;;;10.27;100.00;99425.58;109638;1251;60324;-63
2023/10/11 02:38:47;;;;;;;31.20;14.10;;;;;;;10.26;100.00;99417.99;109369;1251;71523;-63
2023/10/11 02:41:37;;;;;;;35.10;16.90;;;;;;;10.31;100.00;99420.92;109604;1251;67708;-62
2023/10/11 02:44:24;;;;;;;33.80;16.20;;;;;;;10.34;100.00;99422.33;109472;1251;72662;-63
2023/10/11 02:47:11;;;;;;;34.30;16.20;;;;;;;10.36;100.00;99410.48;109370;1251;59454;-63
2023/10/11 02:50:04;;;;;;;35.80;19.20;;;;;;;10.39;100.00;99409.34;109459;1254;58885;-63
2023/10/11 02:52:59;;;;;;;32.50;15.30;;;;;;;10.43;100.00;99405.82;109450;1251;72882;-62
2023/10/11 02:55:45;;;;;;;32.60;17.10;;;;;;;10.45;100.00;99410.89;109589;1251;66907;-64
2023/10/11 02:58:31;;;;;;;33.50;15.60;;;;;;;10.49;100.00;99402.09;109315;1251;71421;-62
2023/10/11 03:01:20;;;;;;;32.60;15.60;;;;;;;10.52;100.00;99397.20;109575;1251;59674;-63
2023/10/11 03:04:15;;;;;;;32.90;15.90;;;;;;;10.55;100.00;99390.16;109597;1251;58740;-65
2023/10/11 03:07:02;;;;;;;35.10;17.10;;;;;;;10.58;100.00;99388.69;109302;1251;72878;-63
2023/10/11 03:09:54;;;;;;;32.50;16.60;;;;;;;10.61;100.00;99386.31;109511;1251;66503;-64
2023/10/11 03:12:42;;;;;;;34.90;17.20;;;;;;;10.66;100.00;99389.23;109466;1251;72629;-63
2023/10/11 03:15:29;;;;;;;33.40;16.70;;;;;;;10.69;100.00;99377.09;109477;1251;58457;-65
2023/10/11 03:18:15;;;;;;;36.90;17.90;;;;;;;10.73;100.00;99374.61;109427;1251;60300;-65
2023/10/11 03:21:20;;;;;;;32.20;16.90;;;;;;;10.78;100.00;99367.07;108707;1251;1002659;-64
2023/10/11 03:24:08;;;;;;;32.40;14.30;;;;;;;10.81;100.00;99363.05;109555;1251;67904;-64
2023/10/11 03:26:54;;;;;;;33.40;16.20;;;;;;;10.84;100.00;99353.70;109583;1250;72900;-64
2023/10/11 03:29:40;;;;;;;32.70;17.50;;;;;;;10.88;100.00;99346.64;109739;1251;59402;-62
2023/10/11 03:32:27;;;;;;;32.00;14.90;;;;;;;10.90;100.00;99333.83;109648;1251;60138;-62
2023/10/11 03:35:18;;;;;;;28.70;15.00;;;;;;;10.93;100.00;99327.22;109456;1251;72908;-63
2023/10/11 03:38:16;;;;;;;26.90;13.40;;;;;;;10.96;100.00;99323.20;109706;1251;66558;-65
2023/10/11 03:41:14;;;;;;;32.00;16.70;;;;;;;10.99;100.00;99315.80;109628;1251;71366;-65
2023/10/11 03:44:11;;;;;;;30.80;15.00;;;;;;;11.02;100.00;99315.58;109638;1251;58020;-65
2023/10/11 03:46:58;;;;;;;33.00;16.20;;;;;;;11.04;100.00;99312.35;109529;1251;61147;-63
2023/10/11 03:49:51;;;;;;;29.60;15.70;;;;;;;11.06;100.00;99312.30;109457;1251;71583;-66
2023/10/11 03:52:40;;;;;;;32.90;17.60;;;;;;;11.09;100.00;99301.77;109543;1251;66371;-67
2023/10/11 03:55:31;;;;;;;31.10;16.10;;;;;;;11.10;100.00;99299.71;109456;1251;71548;-65
2023/10/11 04:04:05;;;;;;;33.40;17.40;;;;;;;11.19;100.00;99290.54;109343;1251;71599;-63
2023/10/11 04:06:51;;;;;;;32.20;15.80;;;;;;;11.23;100.00;99286.48;109522;1250;68743;-63
2023/10/11 04:09:39;;;;;;;29.50;16.00;;;;;;;11.25;100.00;99278.11;109654;1251;72503;-64
2023/10/11 04:12:30;;;;;;;31.80;16.80;;;;;;;11.28;100.00;99270.20;109653;1251;59900;-66
2023/10/11 04:15:24;;;;;;;29.00;15.00;;;;;;;11.31;100.00;99267.45;109403;1250;60828;-64
2023/10/11 04:18:27;;;;;;;31.60;16.80;;;;;;;11.33;100.00;99270.08;109561;1251;71602;-65
2023/10/11 04:21:25;;;;;;;26.80;14.30;;;;;;;11.37;100.00;99265.64;109579;1251;66800;-63
2023/10/11 04:24:13;;;;;;;33.50;17.10;;;;;;;11.39;100.00;99259.98;109691;1251;73672;-65
2023/10/11 04:30:23;;;;;;;30.20;16.10;;;;;;;11.44;100.00;99250.64;109370;1251;60447;-63
2023/10/11 04:33:13;;;;;;;30.30;16.40;;;;;;;11.45;100.00;99238.80;109698;1250;71784;-64
2023/10/11 04:36:02;;;;;;;31.00;16.10;;;;;;;11.47;100.00;99232.58;109525;1251;68028;-66
2023/10/11 04:38:49;;;;;;;31.70;17.90;;;;;;;11.49;100.00;99226.53;109588;1251;71522;-67
2023/10/11 04:41:38;;;;;;;29.30;16.20;;;;;;;11.50;100.00;99226.39;109596;1251;58926;-66
2023/10/11 04:44:32;;;;;;;28.20;16.20;;;;;;;11.53;100.00;99226.29;109453;1250;58919;-65
2023/10/11 04:47:18;;;;;;;34.10;18.50;;;;;;;11.53;100.00;99225.37;109432;1250;72990;-66
2023/10/11 04:50:11;;;;;;;32.80;17.80;;;;;;;11.55;100.00;99215.47;109671;1250;66639;-66
2023/10/11 04:52:58;;;;;;;33.90;17.10;;;;;;;11.56;100.00;99217.47;109411;1251;72748;-64
2023/10/11 04:55:58;;;;;;;31.30;18.60;;;;;;;11.58;100.00;99208.61;109579;1250;60624;-64
2023/10/11 04:58:51;;;;;;;35.00;18.70;;;;;;;11.58;100.00;99203.83;109595;1251;57911;-63
2023/10/11 05:04:42;;;;;;;30.80;16.00;;;;;;;11.58;100.00;99205.44;109570;1251;67604;-65
2023/10/11 05:07:29;;;;;;;31.50;17.20;;;;;;;11.63;100.00;99207.08;109570;1251;73482;-64
2023/10/11 05:13:13;;;;;;;30.10;16.40;;;;;;;11.67;100.00;99187.17;109550;1251;59903;-65
2023/10/11 05:16:06;;;;;;;31.90;16.10;;;;;;;11.69;100.00;99182.89;109426;1251;71636;-67
2023/10/11 05:18:52;;;;;;;32.90;17.50;;;;;;;11.71;100.00;99175.05;109529;1251;67959;-65
2023/10/11 05:21:39;;;;;;;29.40;17.60;;;;;;;11.72;100.00;99166.71;109416;1256;71206;-65
2023/10/11 05:33:31;;;;;;;30.30;16.50;;;;;;;11.80;100.00;99163.10;109605;1251;66197;-65
2023/10/11 05:36:36;;;;;;;31.60;17.70;;;;;;;11.82;100.00;99154.19;109551;1250;73220;-64
2023/10/11 05:51:45;;;;;;;31.50;19.00;;;;;;;11.99;100.00;99151.88;109702;1250;71576;-65
2023/10/11 05:54:34;;;;;;;30.30;16.60;;;;;;;12.03;100.00;99148.11;109578;1251;57920;-63
2023/10/11 05:57:23;;;;;;;31.10;18.50;;;;;;;12.07;100.00;99145.09;109716;1251;58885;-63
2023/10/11 06:00:23;;;;;;;31.60;17.50;;;;;;;12.11;100.00;99138.84;109607;1251;72912;-64
2023/10/11 06:03:11;;;;;;;29.80;17.70;;;;;;;12.16;100.00;99139.77;109490;1251;67680;-64
2023/10/11 06:06:03;;;;;;;31.40;18.90;;;;;;;12.21;100.00;99142.31;109541;1251;71363;-64
2023/10/11 06:08:57;;;;;;;32.90;18.70;;;;;;;12.25;100.00;99139.52;109532;1251;59399;-65
2023/10/11 06:11:50;;;;;;;30.90;18.20;;;;;;;12.33;100.00;99151.73;109459;1253;60355;-68
2023/10/11 06:14:37;;;;;;;31.30;18.90;;;;;;;12.40;100.00;99147.86;109554;1251;73985;-64
2023/10/11 06:17:41;;;;;;;30.00;17.80;;;;;;;12.47;100.00;99152.89;109544;1251;68126;-63
2023/10/11 06:20:28;;;;;;;28.10;16.80;;;;;;;12.53;100.00;99148.71;109519;1251;72470;-66
2023/10/11 06:23:15;;;;;;;32.00;17.90;;;;;;;12.58;100.00;99155.13;109311;1251;60442;-67
2023/10/11 06:26:28;;;;;;;28.90;17.80;;;;;;;12.66;100.00;99156.99;109524;1251;60175;-63
2023/10/11 06:29:10;;;;;;;29.10;16.50;;;;;;;12.74;100.00;99154.81;109588;1251;72172;-66
2023/10/11 06:31:57;;;;;;;31.30;17.80;;;;;;;12.79;100.00;99146.80;109487;1251;66321;-62
2023/10/11 06:34:59;;;;;;;35.90;18.00;;;;;;;12.84;100.00;99141.69;109566;1251;71036;-65
2023/10/11 06:37:52;;;;;;;32.20;18.50;;;;;;;12.90;100.00;99132.13;109517;1251;59376;-65
2023/10/11 06:40:39;;;;;;;32.10;18.90;;;;;;;12.99;100.00;99129.48;109587;1250;61250;-64
2023/10/11 06:43:26;;;;;;;27.10;15.80;;;;;;;13.07;100.00;99124.20;109692;1251;73023;-63
2023/10/11 06:46:12;;;;;;;26.80;16.60;;;;;;;13.12;100.00;99125.11;109476;1251;68112;-65
2023/10/11 06:48:58;;;;;;;30.30;16.80;;;;;;;13.19;100.00;99131.30;109444;1250;73638;-64
2023/10/11 06:51:44;;;;;;;23.70;14.30;;;;;;;13.30;100.00;99121.33;109709;1250;58616;-63
2023/10/11 06:54:32;;;;;;;26.70;16.50;;;;;;;13.41;100.00;99111.98;109626;1250;60058;-64
2023/10/11 06:57:21;;;;;;;29.10;16.40;;;;;;;13.54;100.00;99104.42;109603;1250;72876;-65
2023/10/11 07:00:29;;;;;;;25.30;15.10;;;;;;;13.65;100.00;99097.40;109684;1250;67937;-68
2023/10/11 07:06:12;;;;;;;25.00;15.20;;;;;;;13.71;100.00;99085.35;109505;1250;58173;-67
2023/10/11 07:08:59;;;;;;;24.40;14.40;;;;;;;13.76;100.00;99077.68;109636;1250;60247;-65
2023/10/11 07:11:52;;;;;;;24.60;14.00;;;;;;;13.84;100.00;99078.56;109642;1250;72882;-66
2023/10/11 07:14:41;;;;;;;23.60;14.60;;;;;;;13.93;100.00;99071.59;109609;1251;68118;-64
2023/10/11 07:17:32;;;;;;;26.80;14.40;;;;;;;14.02;100.00;99066.85;109566;1251;72713;-64
2023/10/11 07:20:47;;;;;;;21.00;13.00;;;;;;;14.10;100.00;99064.17;109586;1251;58273;-65
2023/10/11 07:29:23;;;;;;;21.20;12.40;;;;;;;14.35;99.57;99054.58;109622;1250;67540;-64
2023/10/11 07:32:10;;;;;;;21.90;13.30;;;;;;;14.41;98.46;99045.17;109524;1250;71618;-66
2023/10/11 07:34:57;;;;;;;21.60;12.60;;;;;;;14.50;98.06;99034.59;109453;1251;58080;-67
2023/10/11 07:37:46;;;;;;;22.50;12.20;;;;;;;14.58;97.27;99030.59;109756;1250;58689;-66
2023/10/11 07:40:41;;;;;;;22.80;12.20;;;;;;;14.63;96.42;99030.67;109649;1250;72937;-67
2023/10/11 07:43:32;;;;;;;20.10;12.30;;;;;;;14.69;95.87;99026.32;109538;1250;65791;-63
2023/10/11 07:46:19;;;;;;;20.10;11.50;;;;;;;14.79;95.47;99029.44;109542;1251;73707;-66
2023/10/11 07:49:07;;;;;;;20.80;11.90;;;;;;;14.89;94.46;99027.42;109480;1251;59621;-64
2023/10/11 07:51:58;;;;;;;20.00;10.60;;;;;;;15.02;93.82;99019.38;109535;1251;60429;-64
2023/10/11 07:54:46;;;;;;;19.60;11.50;;;;;;;15.08;92.63;99015.84;109503;1252;71413;-67
2023/10/11 07:57:33;;;;;;;22.60;11.40;;;;;;;15.17;91.98;99017.66;109532;1251;67759;-67
2023/10/11 08:00:20;;;;;;;18.90;11.10;;;;;;;15.23;91.25;99011.91;109541;1251;72691;-64
2023/10/11 08:03:08;;;;;;;17.90;9.80;;;;;;;15.27;90.40;99014.35;109450;1251;57431;-64
2023/10/11 08:06:00;;;;;;;19.90;11.50;;;;;;;15.23;90.04;99002.00;109602;1253;58843;-65
2023/10/11 08:08:47;;;;;;;21.00;10.60;;;;;;;15.31;90.33;99006.17;109445;1251;73035;-68
2023/10/11 08:11:44;;;;;;;19.90;11.70;;;;;;;15.37;89.99;99002.73;109569;1251;66901;-66
2023/10/11 08:14:32;;;;;;;16.70;9.20;;;;;;;15.43;89.84;99002.23;109482;1253;71390;-65
2023/10/11 08:17:20;;;;;;;20.00;11.10;;;;;;;15.43;89.26;99001.27;109561;1251;60298;-63
2023/10/11 08:20:15;;;;;;;19.60;10.90;;;;;;;15.52;88.71;99003.48;109594;1251;58150;-65
2023/10/11 08:23:02;;;;;;;18.70;11.20;;;;;;;15.63;88.23;99002.38;109524;1251;73649;-65
2023/10/11 08:25:51;;;;;;;22.00;9.70;;;;;;;15.71;87.70;98999.41;109448;1251;68736;-65
2023/10/11 08:28:47;;;;;;;15.70;9.10;;;;;;;15.89;87.11;99003.52;109458;1251;71166;-63
2023/10/11 08:34:20;;;;;;;18.00;10.60;;;;;;;16.11;85.28;98993.15;109375;1253;60183;-67
2023/10/11 08:37:07;;;;;;;16.70;10.00;;;;;;;16.24;84.19;98989.98;109374;1251;71633;-63
2023/10/11 08:39:54;;;;;;;17.10;9.80;;;;;;;16.31;84.08;98981.42;109467;1251;67902;-65
2023/10/11 08:42:49;;;;;;;17.90;9.60;;;;;;;16.32;83.67;98969.86;109521;1253;71824;-63
2023/10/11 08:45:52;;;;;;;15.90;9.00;;;;;;;16.42;83.00;98963.32;109471;1252;57317;-63
2023/10/11 08:48:39;;;;;;;17.00;8.90;;;;;;;17.02;80.64;98964.86;109461;1251;60225;-65
2023/10/11 08:51:36;;;;;;;18.00;10.20;;;;;;;17.50;77.07;98960.31;109386;1251;74219;-67
2023/10/11 08:54:26;;;;;;;16.30;9.30;;;;;;;18.15;74.91;98965.10;109450;1251;66773;-63
2023/10/11 08:57:13;;;;;;;16.80;9.00;;;;;;;18.86;72.32;98944.52;109313;1251;73381;-64
2023/10/11 08:59:59;;;;;;;15.60;7.90;;;;;;;19.65;68.35;98937.16;109553;1251;57843;-63
2023/10/11 09:02:51;;;;;;;15.90;8.40;;;;;;;20.27;65.01;98936.13;109622;1251;60224;-63
2023/10/11 09:05:43;;;;;;;13.60;8.40;;;;;;;21.23;61.89;98930.54;109571;1251;72890;-63
2023/10/11 09:08:32;;;;;;;14.20;7.70;;;;;;;21.76;59.61;98925.02;109497;1251;68903;-64
2023/10/11 09:11:29;;;;;;;14.00;7.40;;;;;;;22.27;57.30;98922.42;109373;1251;72709;-63
2023/10/11 09:14:23;;;;;;;12.70;6.80;;;;;;;22.42;55.63;98924.58;109487;1251;57844;-64
2023/10/11 09:17:19;;;;;;;16.40;7.60;;;;;;;22.27;55.86;98912.06;109493;1253;60215;-63
2023/10/11 09:20:15;;;;;;;13.40;7.30;;;;;;;22.13;55.49;98913.86;109508;1251;73058;-64
2023/10/11 09:23:02;;;;;;;13.70;6.50;;;;;;;22.09;55.57;98900.39;109521;1251;66622;-66
2023/10/11 09:25:57;;;;;;;14.10;7.00;;;;;;;22.55;54.74;98901.52;109603;1251;73663;-62
2023/10/11 09:28:56;;;;;;;13.80;7.10;;;;;;;23.22;52.60;98896.34;109538;1251;57389;-66
2023/10/11 09:31:58;;;;;;;14.40;7.00;;;;;;;23.54;50.99;98899.73;109462;1251;61601;-64
2023/10/11 09:34:46;;;;;;;11.90;6.60;;;;;;;24.23;49.58;98902.80;109541;1253;73161;-67
2023/10/11 09:37:34;;;;;;;12.50;6.50;;;;;;;25.14;48.02;98895.30;109581;1250;66608;-67
2023/10/11 09:40:32;;;;;;;15.20;6.60;;;;;;;26.02;45.55;98892.00;109606;1251;73011;-66
2023/10/11 09:43:20;;;;;;;12.60;6.40;;;;;;;25.37;45.20;98884.67;109557;1250;57981;-65
2023/10/11 09:46:11;;;;;;;13.90;6.70;;;;;;;25.63;45.12;98890.91;109640;1250;61594;-65
2023/10/11 09:49:04;;;;;;;11.50;5.50;;;;;;;26.01;44.29;98891.92;109602;1251;72999;-66
2023/10/11 09:51:52;;;;;;;11.80;5.60;;;;;;;25.80;43.65;98895.67;109655;1250;67682;-65
2023/10/11 09:54:39;;;;;;;14.50;6.10;;;;;;;25.19;44.43;98887.66;109647;1250;71094;-64
2023/10/11 09:58:04;;;;;;;12.70;6.10;;;;;;;24.14;46.54;98883.36;109541;1251;57449;-64
2023/10/11 10:01:10;;;;;;;11.30;6.00;;;;;;;23.93;47.96;98888.04;109525;1251;60102;-64
2023/10/11 10:04:03;;;;;;;13.00;6.50;;;;;;;23.51;48.35;98885.95;109539;1250;73067;-66
2023/10/11 10:07:12;;;;;;;14.30;6.00;;;;;;;23.04;49.81;98890.19;109623;1251;67631;-65
2023/10/11 10:10:01;;;;;;;11.70;5.40;;;;;;;22.87;50.46;98902.62;109535;1250;72526;-65
2023/10/11 10:13:09;;;;;;;11.20;5.30;;;;;;;23.90;48.09;98903.37;109249;1250;57308;-66
2023/10/11 10:15:57;;;;;;;12.90;5.00;;;;;;;24.92;45.57;98912.07;109249;1254;61301;-63
2023/10/11 10:18:46;;;;;;;11.00;4.70;;;;;;;25.68;43.88;98898.58;109191;1254;73547;-65
2023/10/11 10:22:10;;;;;;;14.90;5.50;;;;;;;26.06;42.70;98879.63;109317;1254;67861;-67
2023/10/11 10:25:19;;;;;;;12.20;4.90;;;;;;;26.63;41.88;98878.84;109166;1254;71482;-65
2023/10/11 10:28:45;;;;;;;11.10;5.60;;;;;;;26.94;40.83;98878.14;109362;1254;57844;-67
2023/10/11 10:31:33;;;;;;;11.20;4.80;;;;;;;26.49;41.54;98867.48;109290;1254;60300;-66
2023/10/11 10:34:24;;;;;;;11.20;5.40;;;;;;;25.90;42.54;98869.61;109323;1254;72971;-66
2023/10/11 10:37:47;;;;;;;11.80;4.90;;;;;;;25.77;43.24;98867.23;109013;1259;68449;-66
2023/10/11 10:40:37;;;;;;;10.40;4.50;;;;;;;25.11;44.09;98863.30;108932;1260;72902;-65
2023/10/11 10:43:24;;;;;;;12.50;5.40;;;;;;;25.18;44.36;98864.30;108611;1262;149230;-67
2023/10/11 10:46:15;;;;;;;11.40;5.00;;;;;;;25.51;43.85;98868.55;108865;1260;61357;-67
2023/10/11 10:49:04;;;;;;;14.30;5.10;;;;;;;25.67;43.60;98865.92;108981;1257;72851;-66
2023/10/11 10:51:53;;;;;;;11.90;4.40;;;;;;;25.30;44.02;98863.81;109024;1256;67928;-66
2023/10/11 10:55:10;;;;;;;11.40;5.20;;;;;;;24.75;44.90;98864.77;109057;1257;71246;-67
2023/10/11 10:57:58;;;;;;;10.70;4.80;;;;;;;24.35;46.09;98877.73;109007;1256;57713;-67
2023/10/11 11:00:47;;;;;;;13.40;5.30;;;;;;;24.21;46.66;98877.65;109105;1257;59264;-66
2023/10/11 11:03:44;;;;;;;13.90;5.30;;;;;;;23.95;47.27;98866.04;108943;1257;73035;-66
2023/10/11 11:06:46;;;;;;;13.80;5.00;;;;;;;23.60;48.10;98858.23;109042;1256;66447;-65
2023/10/11 11:09:32;;;;;;;12.00;5.20;;;;;;;23.13;49.14;98857.55;109301;1254;71669;-66
2023/10/11 11:12:27;;;;;;;10.90;4.80;;;;;;;22.93;50.23;98867.16;109610;1251;57713;-66
2023/10/11 11:15:20;;;;;;;12.60;5.30;;;;;;;22.95;50.86;98868.84;109587;1250;58573;-67
2023/10/11 11:18:11;;;;;;;12.70;4.90;;;;;;;23.02;51.01;98866.67;109504;1251;72836;-65
2023/10/11 11:21:18;;;;;;;12.00;4.70;;;;;;;22.87;50.66;98863.08;109604;1251;66782;-65
2023/10/11 11:24:19;;;;;;;12.30;5.60;;;;;;;22.91;50.50;98861.93;109646;1250;73606;-62
2023/10/11 11:27:25;;;;;;;12.70;4.70;;;;;;;23.24;49.95;98860.66;109564;1251;58895;-65
2023/10/11 11:30:29;;;;;;;13.30;4.70;;;;;;;23.45;49.38;98866.70;109560;1251;60178;-65
2023/10/11 11:33:35;;;;;;;11.90;4.60;;;;;;;23.58;49.12;98871.80;109638;1251;71004;-66
2023/10/11 11:36:31;;;;;;;9.00;4.90;;;;;;;23.80;48.19;98867.28;109514;1251;67699;-64
2023/10/11 11:39:36;;;;;;;10.90;4.80;;;;;;;24.25;47.86;98860.56;109382;1251;74062;-62
2023/10/11 11:42:24;;;;;;;13.70;5.30;;;;;;;24.54;46.98;98862.05;109586;1251;58249;-62
2023/10/11 11:45:18;;;;;;;12.80;5.50;;;;;;;24.22;47.26;98861.15;109501;1251;60375;-64
2023/10/11 11:48:05;;;;;;;11.80;4.80;;;;;;;24.20;47.69;98856.30;109519;1251;73375;-64
2023/10/11 11:50:56;;;;;;;9.40;4.20;;;;;;;24.24;47.56;98851.08;109517;1251;67687;-64
2023/10/11 11:53:45;;;;;;;11.10;4.80;;;;;;;24.16;47.42;98848.61;109590;1251;71676;-63
2023/10/11 11:56:32;;;;;;;12.50;4.60;;;;;;;24.07;47.57;98847.66;109537;1252;58086;-64
2023/10/11 11:59:18;;;;;;;11.30;4.60;;;;;;;24.03;47.91;98851.10;109501;1251;60309;-64
2023/10/11 12:02:16;;;;;;;11.70;4.90;;;;;;;24.10;47.80;98854.96;109541;1251;73170;-62
2023/10/11 12:05:04;;;;;;;13.30;4.60;;;;;;;24.07;47.76;98859.48;109637;1254;67229;-64
2023/10/11 12:07:57;;;;;;;14.40;4.80;;;;;;;24.07;48.13;98851.64;109444;1251;72910;-66
2023/10/11 12:10:47;;;;;;;17.40;4.90;;;;;;;24.08;48.38;98850.25;109556;1251;57302;-65
2023/10/11 12:13:33;;;;;;;12.00;4.40;;;;;;;24.15;48.12;98852.25;109524;1251;58741;-64
2023/10/11 12:16:22;;;;;;;10.20;4.60;;;;;;;24.08;48.27;98852.91;109684;1251;73558;-64
2023/10/11 12:19:13;;;;;;;13.60;4.50;;;;;;;23.94;48.68;98852.24;109601;1250;67784;-69
2023/10/11 12:22:01;;;;;;;11.80;4.70;;;;;;;23.69;49.04;98850.07;109588;1251;71147;-66
2023/10/11 12:24:48;;;;;;;10.40;4.20;;;;;;;23.32;49.38;98841.71;109556;1251;57284;-67
2023/10/11 12:27:40;;;;;;;10.60;4.60;;;;;;;22.81;49.99;98845.50;109592;1250;60327;-66
2023/10/11 12:30:27;;;;;;;12.90;4.90;;;;;;;22.67;51.03;98852.90;109615;1251;71892;-65
2023/10/11 12:33:18;;;;;;;13.20;5.00;;;;;;;22.37;51.50;98841.16;109701;1250;68287;-67
2023/10/11 12:36:06;;;;;;;12.70;4.80;;;;;;;22.27;52.07;98860.05;109745;1250;72651;-67
2023/10/11 12:38:53;;;;;;;12.30;5.60;;;;;;;22.07;52.28;98859.71;109654;1251;57341;-68
2023/10/11 12:41:40;;;;;;;14.40;4.80;;;;;;;22.03;53.03;98861.73;109609;1251;60214;-63
2023/10/11 12:44:29;;;;;;;10.70;4.50;;;;;;;22.06;53.02;98857.25;109540;1254;71002;-65
2023/10/11 12:47:19;;;;;;;11.10;4.50;;;;;;;22.00;52.88;98859.52;109518;1251;67886;-65
2023/10/11 12:50:06;;;;;;;15.00;4.40;;;;;;;21.88;52.88;98854.89;109483;1253;72750;-65
2023/10/11 12:52:53;;;;;;;10.20;4.10;;;;;;;21.72;52.99;98849.95;108945;1259;58736;-65
2023/10/11 12:55:42;;;;;;;12.10;4.40;;;;;;;21.59;53.12;98850.05;108953;1259;58538;-64
2023/10/11 12:58:38;;;;;;;14.10;4.50;;;;;;;21.46;53.28;98842.30;108903;1261;71561;-66
2023/10/11 13:01:40;;;;;;;13.60;4.30;;;;;;;21.38;53.36;98843.81;108983;1259;67900;-64
2023/10/11 13:04:41;;;;;;;12.00;4.70;;;;;;;21.29;53.51;98854.30;108980;1259;72946;-65
2023/10/11 13:07:27;;;;;;;12.20;4.60;;;;;;;21.19;53.91;98858.27;108965;1259;57894;-68
2023/10/11 13:10:15;;;;;;;13.40;4.90;;;;;;;21.05;54.10;98860.67;109003;1259;59042;-66
2023/10/11 13:13:09;;;;;;;10.20;4.10;;;;;;;21.01;54.37;98865.36;109024;1259;74186;-68
2023/10/11 13:15:59;;;;;;;11.80;4.50;;;;;;;20.83;55.09;98855.89;108985;1261;67162;-68
2023/10/11 13:18:53;;;;;;;10.70;4.40;;;;;;;20.70;55.76;98847.83;109518;1254;71434;-66
2023/10/11 13:21:44;;;;;;;15.80;5.40;;;;;;;20.57;56.38;98835.13;109391;1252;57758;-67
2023/10/11 13:24:34;;;;;;;13.30;4.60;;;;;;;20.56;56.94;98833.73;109384;1252;58964;-66
2023/10/11 13:27:22;;;;;;;11.70;4.30;;;;;;;20.58;57.38;98828.44;109481;1252;73884;-65
2023/10/11 13:30:10;;;;;;;12.00;4.50;;;;;;;20.55;57.53;98838.30;109566;1253;68691;-66
2023/10/11 13:33:00;;;;;;;16.40;4.80;;;;;;;20.52;57.76;98843.14;109339;1253;72712;-67
2023/10/11 13:35:48;;;;;;;12.50;4.80;;;;;;;20.55;58.25;98847.08;109438;1252;58271;-66
2023/10/11 13:38:36;;;;;;;12.80;4.30;;;;;;;20.55;58.39;98847.20;109432;1253;59985;-65
2023/10/11 13:41:27;;;;;;;13.80;4.90;;;;;;;20.56;58.45;98844.45;109507;1253;73095;-66
2023/10/11 13:44:14;;;;;;;12.70;4.60;;;;;;;20.50;58.81;98830.88;109584;1252;68385;-70
2023/10/11 13:47:01;;;;;;;11.30;4.40;;;;;;;20.58;59.10;98847.94;109494;1254;72692;-64